Stuttgart Airport

EDDS · Badenia-Wirtembergia, Niemcy

7 października 2022

Czas Kod Pogoda Temp. Widoczność Sufit Wiatr METAR/SPECI
04:50
V
12 °C 10 km+ 5.300 ft 350° 350° 2 kt METAR EDSB 070250Z AUTO 35002KT 9999 // OVC053/// 12/10 Q1027
04:20
V
12 °C 10 km+ 5.300 ft Var Var 1 kt METAR EDSB 070220Z AUTO VRB01KT 9999 // OVC053/// 12/10 Q1027
03:50
V
12 °C 10 km+ 5.200 ft 020° 020° 3 kt METAR EDSB 070150Z AUTO 02003KT 9999 // OVC052/// 12/10 Q1027
03:20
V
12 °C 10 km+ 5.400 ft 020° 020° 2 kt METAR EDSB 070120Z AUTO 02002KT 9999 // OVC054/// 12/09 Q1028
02:50
V
12 °C 10 km+ 5.300 ft 030° 030° 3 kt METAR EDSB 070050Z AUTO 03003KT 9999 // FEW044/// OVC053/// 12/09 Q1028
02:20
V
12 °C 10 km+ 5.300 ft Var Var 2 kt METAR EDSB 070020Z AUTO VRB02KT 9999 // FEW045/// OVC053/// 12/10 Q1029
01:50
V
12 °C 10 km+ 4.500 ft 350° 350° 2 kt METAR EDSB 062350Z AUTO 35002KT 9999 // BKN045/// OVC052/// 12/10 Q1029
01:20
V
12 °C 10 km+ 4.500 ft 330° 330° 2 kt METAR EDSB 062320Z AUTO 33002KT 9999 // BKN045/// OVC054/// 12/09 Q1029
00:50
V
12 °C 10 km+ 4.800 ft 340° 340° 2 kt METAR EDSB 062250Z AUTO 34002KT 9999 // FEW039/// BKN048/// OVC057/// 12/09 Q1029
00:20
V
11 °C 10 km+ 5.700 ft 320° 320° 2 kt METAR EDSB 062220Z AUTO 32002KT 9999 // FEW039/// BKN057/// 11/09 Q1029

6 października 2022

Czas Kod Pogoda Temp. Widoczność Sufit Wiatr METAR/SPECI
23:50
V
12 °C 10 km+ 5.700 ft 330° 330° 2 kt METAR EDSB 062150Z AUTO 33002KT 9999 // OVC057/// 12/10 Q1029
23:20
V
12 °C 10 km+ 5.600 ft 340° 340° 2 kt METAR EDSB 062120Z 34002KT 9999 FEW039 OVC056 12/10 Q1030
22:50
V
12 °C 10 km+ 5.700 ft 330° 330° 2 kt METAR EDSB 062050Z 33002KT 9999 FEW039 OVC057 12/10 Q1030
22:20
V
11 °C 10 km+ 5.600 ft Var 000° 0 kt METAR EDSB 062020Z 00000KT 9999 FEW038 BKN056 11/10 Q1030
21:50
V
11 °C 10 km+ 5.500 ft Var 000° 0 kt METAR EDSB 061950Z 00000KT 9999 FEW039 BKN055 11/10 Q1030
21:20
V
12 °C 10 km+ 5.400 ft 150° 150° 1 kt METAR EDSB 061920Z 15001KT 9999 SCT038 BKN054 12/10 Q1030
20:50
V
13 °C 10 km+ 3.800 ft 280° 280° 3 kt METAR EDSB 061850Z 28003KT 220V310 9999 BKN038 13/11 Q1030
20:20
V
12 °C 10 km+ - Var Var 2 kt METAR EDSB 061820Z VRB02KT 9999 SCT040 12/10 Q1030
19:50
V
13 °C 10 km+ - Var 000° 0 kt METAR EDSB 061750Z 00000KT 9999 FEW040 13/10 Q1030
19:20
V
14 °C 10 km+ - Var 000° 0 kt METAR EDSB 061720Z 00000KT CAVOK 14/11 Q1030
18:50
V
16 °C 10 km+ - 200° 200° 2 kt METAR EDSB 061650Z 20002KT CAVOK 16/10 Q1030
18:20
V
18 °C 10 km+ - 140° 140° 3 kt METAR EDSB 061620Z 14003KT CAVOK 18/10 Q1030
17:50
V
18 °C 10 km+ - Var Var 2 kt METAR EDSB 061550Z VRB02KT CAVOK 18/10 Q1030
17:20
V
19 °C 10 km+ - Var Var 2 kt METAR EDSB 061520Z VRB02KT 9999 FEW036 19/10 Q1030
16:50
V
18 °C 10 km+ - 070° 070° 3 kt METAR EDSB 061450Z 07003KT 010V140 9999 FEW039 18/10 Q1030
16:20
V
19 °C 10 km+ - 170° 170° 3 kt METAR EDSB 061420Z 17003KT 100V230 9999 FEW032 19/11 Q1030
15:50
V
18 °C 10 km+ - 190° 190° 4 kt METAR EDSB 061350Z 19004KT 140V260 CAVOK 18/11 Q1030
15:20
V
19 °C 10 km+ - 180° 180° 3 kt METAR EDSB 061320Z 18003KT 100V240 9999 FEW042 19/11 Q1031
14:50
V
18 °C 10 km+ 4.300 ft Var Var 2 kt METAR EDSB 061250Z VRB02KT 9999 BKN043 18/11 Q1031
14:20
V
17 °C 10 km+ 4.300 ft 320° 320° 4 kt METAR EDSB 061220Z 32004KT 280V360 9999 FEW030 OVC043 17/11 Q1031
13:50
V
17 °C 10 km+ 3.000 ft 320° 320° 3 kt METAR EDSB 061150Z 32003KT 230V350 9999 BKN030 17/11 Q1031
13:20
V
18 °C 10 km+ 3.900 ft Var Var 3 kt METAR EDSB 061120Z VRB03KT 9999 FEW027 BKN039 18/11 Q1031
12:50
V
17 °C 10 km+ 3.600 ft 180° 180° 3 kt METAR EDSB 061050Z 18003KT 110V250 9999 VCSH FEW025 BKN036TCU 17/11 Q1031
12:20
V
17 °C 10 km+ 4.500 ft Var Var 2 kt METAR EDSB 061020Z VRB02KT 9999 FEW022 BKN045 17/12 Q1031
11:50
V
17 °C 10 km+ 4.400 ft Var Var 2 kt METAR EDSB 060950Z VRB02KT 9999 BKN044 17/12 Q1031
11:20
V
17 °C 10 km+ 4.400 ft 270° 270° 3 kt METAR EDSB 060920Z 27003KT 220V330 9999 BKN044 17/12 Q1031
10:50
V
16 °C 10 km+ 4.000 ft 290° 290° 3 kt METAR EDSB 060850Z 29003KT 220V330 9999 BKN040 16/12 Q1031
10:20
V
16 °C 10 km+ 3.700 ft 250° 250° 3 kt METAR EDSB 060820Z 25003KT 210V290 9999 BKN037 OVC047 16/11 Q1031
09:50
V
16 °C 10 km+ 4.100 ft 230° 230° 3 kt METAR EDSB 060750Z 23003KT 9999 BKN041 OVC048 16/11 Q1031
09:20
V
15 °C 10 km+ 4.300 ft 240° 240° 3 kt METAR EDSB 060720Z 24003KT 190V300 9999 OVC043 15/11 Q1030
08:50
V
15 °C 10 km+ 4.500 ft 250° 250° 3 kt METAR EDSB 060650Z 25003KT 210V300 9999 BKN045 15/11 Q1030
08:20
V
15 °C 10 km+ 4.200 ft Var Var 2 kt METAR EDSB 060620Z VRB02KT 9999 BKN042 OVC049 15/11 Q1029
07:50
V
15 °C 10 km+ 4.700 ft 210° 210° 3 kt METAR EDSB 060550Z 21003KT 9999 SCT040 OVC047 15/12 Q1029
07:20
V
16 °C 10 km+ 4.500 ft 240° 240° 3 kt METAR EDSB 060520Z 24003KT 200V300 9999 FEW039 OVC045 16/12 Q1029
06:50
V
16 °C 10 km+ 4.300 ft 230° 230° 5 kt METAR EDSB 060450Z 23005KT 200V280 9999 FEW032 OVC043 16/13 Q1028
06:20
V
16 °C 10 km+ 3.200 ft 230° 230° 4 kt METAR EDSB 060420Z 23004KT 200V260 9999 BKN032 OVC037 16/13 Q1028
05:50
V
16 °C 10 km+ 3.100 ft 210° 210° 5 kt METAR EDSB 060350Z 21005KT 9999 BKN031 OVC035 16/12 Q1027
05:20
V
15 °C 10 km+ 3.300 ft 210° 210° 5 kt METAR EDSB 060320Z 21005KT 9999 OVC033 15/12 Q1027
04:50
M
16 °C 10 km+ 2.900 ft 210° 210° 5 kt METAR EDSB 060250Z 21005KT 9999 BKN029 16/12 Q1026
04:20
V
15 °C 10 km+ - 220° 220° 5 kt METAR EDSB 060220Z AUTO 22005KT 9999 FEW030/// 15/11 Q1026
03:50
V
15 °C 10 km+ - 210° 210° 5 kt METAR EDSB 060150Z AUTO 21005KT 9999 SCT041/// 15/11 Q1025
03:20
V
14 °C 10 km+ - 200° 200° 6 kt METAR EDSB 060120Z AUTO 20006KT 9999 NCD 14/11 Q1025
02:50
V
13 °C 10 km+ - 210° 210° 5 kt METAR EDSB 060050Z AUTO 21005KT 9999 NCD 13/10 Q1025
02:20
V
16 °C 10 km+ - 250° 250° 5 kt METAR EDSB 060020Z AUTO 25005KT 230V290 9999 NCD 16/11 Q1025
01:50
V
16 °C 10 km+ - 260° 260° 5 kt METAR EDSB 052350Z AUTO 26005KT 220V310 9999 NCD 16/11 Q1024
01:20
V
17 °C 10 km+ - 210° 210° 7 kt METAR EDSB 052320Z AUTO 21007KT 190V250 9999 NCD 17/10 Q1024
00:50
V
17 °C 10 km+ - 210° 210° 6 kt METAR EDSB 052250Z AUTO 21006KT 180V240 9999 NCD 17/10 Q1024
00:20
V
18 °C 10 km+ - 200° 200° 9 kt METAR EDSB 052220Z AUTO 20009KT 9999 NCD 18/10 Q1023

5 października 2022

Czas Kod Pogoda Temp. Widoczność Sufit Wiatr METAR/SPECI
23:50
V
18 °C 10 km+ - 200° 200° 10 kt METAR EDSB 052150Z AUTO 20010KT 9999 NCD 18/11 Q1023
23:20
V
18 °C 10 km+ - 200° 200° 11 kt METAR EDSB 052120Z AUTO 20011KT 9999 NCD 18/11 Q1023
22:50
V
18 °C 10 km+ - 190° 190° 9 kt METAR EDSB 052050Z 19009KT CAVOK 18/12 Q1023
22:20
V
18 °C 10 km+ - 190° 190° 9 kt METAR EDSB 052020Z 19009KT CAVOK 18/12 Q1023
21:50
V
15 °C 10 km+ - 200° 200° 6 kt METAR EDSB 051950Z 20006KT CAVOK 15/11 Q1022
21:20
V
17 °C 10 km+ - 210° 210° 4 kt METAR EDSB 051920Z 21004KT CAVOK 17/12 Q1021
20:50
V
18 °C 10 km+ - 220° 220° 8 kt METAR EDSB 051850Z 22008KT CAVOK 18/11 Q1021
20:20
V
19 °C 10 km+ - 220° 220° 6 kt METAR EDSB 051820Z 22006KT CAVOK 19/11 Q1021
19:50
V
18 °C 10 km+ - 210° 210° 5 kt METAR EDSB 051750Z 21005KT CAVOK 18/11 Q1020
19:20
V
19 °C 10 km+ - 220° 220° 6 kt METAR EDSB 051720Z 22006KT CAVOK 19/11 Q1020
18:50
V
20 °C 10 km+ - 200° 200° 4 kt METAR EDSB 051650Z 20004KT CAVOK 20/12 Q1019
18:20
V
23 °C 10 km+ - 200° 200° 6 kt METAR EDSB 051620Z 20006KT CAVOK 23/13 Q1019
17:50
V
24 °C 10 km+ - 210° 210° 9 kt METAR EDSB 051550Z 21009KT CAVOK 24/12 Q1019
17:20
V
24 °C 10 km+ - 210° 210° 11 kt METAR EDSB 051520Z 21011KT CAVOK 24/12 Q1019
16:50
V
25 °C 10 km+ - 210° 210° 11 kt METAR EDSB 051450Z 21011KT CAVOK 25/12 Q1019
16:20
V
24 °C 10 km+ - 210° 210° 13 kt METAR EDSB 051420Z 21013KT CAVOK 24/13 Q1019
15:50
V
24 °C 10 km+ - 200° 200° 13 kt METAR EDSB 051350Z 20013KT CAVOK 24/13 Q1019
15:20
V
24 °C 10 km+ - 200° 200° 12 kt METAR EDSB 051320Z 20012KT CAVOK 24/14 Q1020
14:50
V
24 °C 10 km+ - 200° 200° 12 kt METAR EDSB 051250Z 20012KT CAVOK 24/14 Q1020
14:20
V
23 °C 10 km+ - 210° 210° 13 kt METAR EDSB 051220Z 21013KT CAVOK 23/14 Q1020
13:50
V
22 °C 10 km+ - 220° 220° 14 kt METAR EDSB 051150Z 22014KT CAVOK 22/13 Q1020
13:20
V
22 °C 10 km+ - 210° 210° 12 kt METAR EDSB 051120Z 21012KT CAVOK 22/13 Q1021
12:50
V
21 °C 10 km+ - 200° 200° 14 kt METAR EDSB 051050Z 20014KT CAVOK 21/13 Q1021
12:20
V
19 °C 10 km+ - 220° 220° 6 kt METAR EDSB 051020Z 22006KT 190V250 CAVOK 19/13 Q1021
11:50
V
16 °C 10 km+ - 220° 220° 4 kt METAR EDSB 050950Z 22004KT 170V260 CAVOK 16/15 Q1021
11:20
V
13 °C 10 km+ - Var Var 2 kt METAR EDSB 050920Z VRB02KT 9999 FEW002 13/13 Q1022
10:50
I
11 °C 3 km - Var Var 2 kt METAR EDSB 050850Z VRB02KT 3000 BR SCT002 SCT004 11/11 Q1022
10:20
L
10 °C 1,1 km 200 ft 180° 180° 3 kt METAR EDSB 050820Z 18003KT 140V210 1100 R21/P2000N BCFG BKN002 OVC004 10/10 Q1022
09:50
L
9 °C 450 m - Var 000° 0 kt METAR EDSB 050750Z 00000KT 0450 R21/0600N FG VV/// 09/09 Q1022
09:20
L
9 °C 500 m - Var 000° 0 kt METAR EDSB 050720Z 00000KT 0500 R21/0700N FG VV/// 09/08 Q1022
08:50
L
8 °C 500 m - 140° 140° 3 kt METAR EDSB 050650Z 14003KT 110V170 0500 R21/0700U FG VV/// 08/08 Q1022
08:20
L
7 °C 250 m 100 ft Var Var 1 kt METAR EDSB 050620Z VRB01KT 0250 R21/0325N FG VV001 07/07 Q1022
07:50
L
7 °C 450 m - 170° 170° 2 kt METAR EDSB 050550Z 17002KT 0450 R21/0700D FG VV/// 07/07 Q1022
07:20
L
7 °C 250 m 200 ft Var 000° 0 kt METAR EDSB 050520Z 00000KT 0300 0250 R21/0375N VV002 07/07 Q1021
06:50
L
7 °C 350 m - Var Var 2 kt METAR EDSB 050450Z VRB02KT 0350 R21/0350N FG VV/// 07/06 Q1021
06:20
L
7 °C 350 m - 230° 230° 2 kt METAR EDSB 050420Z 23002KT 0350 R21/0475N FG VV/// 07/06 Q1021
05:50
L
7 °C 350 m - Var Var 1 kt METAR EDSB 050350Z VRB01KT 0350 R21/0475N FG VV/// 07/07 Q1021
05:20
L
7 °C 300 m - 140° 140° 3 kt METAR EDSB 050320Z 14003KT 0300 R21/0375N FG VV/// 07/07 Q1022
04:50
L
6 °C 450 m - 270° 270° 2 kt METAR EDSB 050250Z 27002KT 0450 R21/0500D FG VV/// 06/06 Q1022
04:20
L
7 °C 450 m 200 ft Var Var 2 kt METAR EDSB 050220Z AUTO VRB02KT 0450 R21/0650N VV002 07/06 Q1022
03:50
L
7 °C 300 m 200 ft Var Var 2 kt METAR EDSB 050150Z AUTO VRB02KT 0350 0300 R21/0650D VV002 07/07 Q1021
03:20
L
7 °C 7 km 100 ft 130° 130° 3 kt METAR EDSB 050120Z AUTO 13003KT 120V190 7000 VV001 07/06 Q1022
02:50
L
7 °C 300 m 100 ft Var 000° 0 kt METAR EDSB 050050Z AUTO 00000KT 0500 0300 R21/0550D VV001 07/06 Q1022
02:20
L
7 °C 450 m - Var Var 1 kt METAR EDSB 050020Z AUTO VRB01KT 0600 0450 R21/0650D FEW001/// SCT003/// 07/06 Q1022
01:50
L
7 °C 550 m - Var 000° 0 kt METAR EDSB 042350Z AUTO 00000KT 9999 0550 R21/P2000N FEW003/// 07/06 Q1022
01:20
L
8 °C 550 m 100 ft Var Var 2 kt METAR EDSB 042320Z AUTO VRB02KT 0800 0550 R21/P2000N VV001 08/07 Q1022
00:50
L
8 °C 350 m 100 ft 190° 190° 2 kt METAR EDSB 042250Z AUTO 19002KT 0900 0350 R21/0350D VV001 08/07 Q1022
00:20
L
8 °C 350 m 100 ft Var Var 1 kt METAR EDSB 042220Z AUTO VRB01KT 0550 0350 R21/P2000N BKN001/// 08/07 Q1022

4 października 2022

Czas Kod Pogoda Temp. Widoczność Sufit Wiatr METAR/SPECI
23:50
L
8 °C 750 m - 180° 180° 2 kt METAR EDSB 042150Z AUTO 18002KT 7000 0750 R21/P2000N FEW001/// SCT003/// 08/07 Q1022
23:20
L
8 °C 450 m - Var 000° 0 kt METAR EDSB 042120Z AUTO 00000KT 0750 0450 R21/1500U FEW003/// 08/08 Q1022
22:50
M
10 °C 7 km - Var 000° 0 kt METAR EDSB 042050Z 00000KT 7000 BCFG NSC 10/09 Q1022
22:20
M
10 °C 7 km - Var 000° 0 kt METAR EDSB 042020Z 00000KT 7000 R03/0600D BCFG FEW002 10/09 Q1022
21:50
V
10 °C 9 km - Var 000° 0 kt METAR EDSB 041950Z 00000KT 9000 R03/1200D BCFG NSC 10/09 Q1022
21:20
V
10 °C 10 km+ - Var Var 1 kt METAR EDSB 041920Z VRB01KT 9999 BCFG NSC 10/09 Q1021
Starsze dane

My i osoby trzecie śledzimy twoje zachowanie w internecie na naszej stronie za pomocą plików cookie. Jeśli kontynuujesz, zakładamy, że zgadzasz się z naszą polityką plików cookie. Dowiedz się więcej